sensor_id;sensor_type;location;lat;lon;timestamp;P1;P2;P0
42510;PMS7003;28141;51.120;17.114;2022-10-16T00:02:51;15;7;5
42510;PMS7003;28141;51.120;17.114;2022-10-16T00:05:54;17;7;5
42510;PMS7003;28141;51.120;17.114;2022-10-16T00:09:03;14;8;5
42510;PMS7003;28141;51.120;17.114;2022-10-16T00:12:32;14;7;5
42510;PMS7003;28141;51.120;17.114;2022-10-16T00:15:36;15;7;5
42510;PMS7003;28141;51.120;17.114;2022-10-16T00:18:41;15;8;4
42510;PMS7003;28141;51.120;17.114;2022-10-16T00:21:46;13;7;5
42510;PMS7003;28141;51.120;17.114;2022-10-16T00:24:49;16;7;4
42510;PMS7003;28141;51.120;17.114;2022-10-16T00:27:53;15;8;5
42510;PMS7003;28141;51.120;17.114;2022-10-16T00:30:56;15;8;5
42510;PMS7003;28141;51.120;17.114;2022-10-16T00:34:00;15;8;5
42510;PMS7003;28141;51.120;17.114;2022-10-16T00:37:04;13;7;5
42510;PMS7003;28141;51.120;17.114;2022-10-16T00:40:08;14;7;5
42510;PMS7003;28141;51.120;17.114;2022-10-16T00:43:45;15;8;6
42510;PMS7003;28141;51.120;17.114;2022-10-16T00:46:50;12;6;4
42510;PMS7003;28141;51.120;17.114;2022-10-16T00:49:59;14;7;4
42510;PMS7003;28141;51.120;17.114;2022-10-16T00:53:09;15;8;5
42510;PMS7003;28141;51.120;17.114;2022-10-16T00:56:14;15;7;4
42510;PMS7003;28141;51.120;17.114;2022-10-16T00:59:23;12;5;4
42510;PMS7003;28141;51.120;17.114;2022-10-16T01:02:58;17;9;6
42510;PMS7003;28141;51.120;17.114;2022-10-16T01:09:28;15;8;5
42510;PMS7003;28141;51.120;17.114;2022-10-16T01:12:33;13;6;5
42510;PMS7003;28141;51.120;17.114;2022-10-16T01:19:38;14;7;5
42510;PMS7003;28141;51.120;17.114;2022-10-16T01:22:50;15;7;5
42510;PMS7003;28141;51.120;17.114;2022-10-16T01:33:01;16;7;5
42510;PMS7003;28141;51.120;17.114;2022-10-16T01:36:14;14;7;4
42510;PMS7003;28141;51.120;17.114;2022-10-16T01:39:23;14;7;5
42510;PMS7003;28141;51.120;17.114;2022-10-16T01:42:34;13;6;4
42510;PMS7003;28141;51.120;17.114;2022-10-16T01:45:42;15;7;5
42510;PMS7003;28141;51.120;17.114;2022-10-16T01:48:48;14;6;4
42510;PMS7003;28141;51.120;17.114;2022-10-16T01:52:21;13;6;5
42510;PMS7003;28141;51.120;17.114;2022-10-16T01:55:29;13;7;4
42510;PMS7003;28141;51.120;17.114;2022-10-16T01:58:37;14;6;4
42510;PMS7003;28141;51.120;17.114;2022-10-16T02:01:49;13;6;5
42510;PMS7003;28141;51.120;17.114;2022-10-16T02:04:59;15;7;5
42510;PMS7003;28141;51.120;17.114;2022-10-16T02:08:09;14;7;5
42510;PMS7003;28141;51.120;17.114;2022-10-16T02:11:40;13;6;4
42510;PMS7003;28141;51.120;17.114;2022-10-16T02:14:43;14;6;5
42510;PMS7003;28141;51.120;17.114;2022-10-16T02:17:47;13;6;4
42510;PMS7003;28141;51.120;17.114;2022-10-16T02:31:03;15;8;4
42510;PMS7003;28141;51.120;17.114;2022-10-16T02:34:11;13;7;4
42510;PMS7003;28141;51.120;17.114;2022-10-16T02:37:17;11;4;3
42510;PMS7003;28141;51.120;17.114;2022-10-16T02:40:21;13;6;4
42510;PMS7003;28141;51.120;17.114;2022-10-16T02:43:26;12;6;4
42510;PMS7003;28141;51.120;17.114;2022-10-16T02:46:29;14;8;4
42510;PMS7003;28141;51.120;17.114;2022-10-16T02:49:33;15;6;4
42510;PMS7003;28141;51.120;17.114;2022-10-16T02:52:36;13;6;4
42510;PMS7003;28141;51.120;17.114;2022-10-16T02:55:40;13;6;4
42510;PMS7003;28141;51.120;17.114;2022-10-16T02:58:43;14;6;4
42510;PMS7003;28141;51.120;17.114;2022-10-16T03:02:14;12;5;4
42510;PMS7003;28141;51.120;17.114;2022-10-16T03:05:17;14;7;4
42510;PMS7003;28141;51.120;17.114;2022-10-16T03:08:21;14;6;4
42510;PMS7003;28141;51.120;17.114;2022-10-16T03:11:27;15;6;4
42510;PMS7003;28141;51.120;17.114;2022-10-16T03:14:31;12;5;4
42510;PMS7003;28141;51.120;17.114;2022-10-16T03:17:34;12;5;3
42510;PMS7003;28141;51.120;17.114;2022-10-16T03:20:38;13;5;3
42510;PMS7003;28141;51.120;17.114;2022-10-16T03:23:41;13;6;4
42510;PMS7003;28141;51.120;17.114;2022-10-16T03:26:45;13;5;4
42510;PMS7003;28141;51.120;17.114;2022-10-16T03:29:48;12;5;3
42510;PMS7003;28141;51.120;17.114;2022-10-16T03:32:52;12;5;3
42510;PMS7003;28141;51.120;17.114;2022-10-16T03:36:26;12;5;3
42510;PMS7003;28141;51.120;17.114;2022-10-16T03:39:29;11;5;3
42510;PMS7003;28141;51.120;17.114;2022-10-16T03:43:16;13;5;4
42510;PMS7003;28141;51.120;17.114;2022-10-16T03:46:19;14;6;4
42510;PMS7003;28141;51.120;17.114;2022-10-16T03:49:23;11;5;3
42510;PMS7003;28141;51.120;17.114;2022-10-16T03:52:26;15;5;4
42510;PMS7003;28141;51.120;17.114;2022-10-16T03:55:30;12;5;3
42510;PMS7003;28141;51.120;17.114;2022-10-16T03:58:33;12;5;3
42510;PMS7003;28141;51.120;17.114;2022-10-16T04:01:37;12;5;3
42510;PMS7003;28141;51.120;17.114;2022-10-16T04:04:40;13;5;3
42510;PMS7003;28141;51.120;17.114;2022-10-16T04:07:44;13;6;3
42510;PMS7003;28141;51.120;17.114;2022-10-16T04:10:47;12;5;4
42510;PMS7003;28141;51.120;17.114;2022-10-16T04:13:51;11;4;3
42510;PMS7003;28141;51.120;17.114;2022-10-16T04:17:21;11;5;3
42510;PMS7003;28141;51.120;17.114;2022-10-16T04:20:24;13;5;3
42510;PMS7003;28141;51.120;17.114;2022-10-16T04:23:28;11;5;3
42510;PMS7003;28141;51.120;17.114;2022-10-16T04:26:32;11;5;3
42510;PMS7003;28141;51.120;17.114;2022-10-16T04:29:35;11;4;3
42510;PMS7003;28141;51.120;17.114;2022-10-16T04:32:39;12;5;3
42510;PMS7003;28141;51.120;17.114;2022-10-16T04:35:42;11;4;2
42510;PMS7003;28141;51.120;17.114;2022-10-16T04:38:46;11;4;4
42510;PMS7003;28141;51.120;17.114;2022-10-16T04:41:49;10;4;2
42510;PMS7003;28141;51.120;17.114;2022-10-16T04:44:53;12;5;3
42510;PMS7003;28141;51.120;17.114;2022-10-16T04:47:57;13;5;3
42510;PMS7003;28141;51.120;17.114;2022-10-16T04:51:27;11;5;3
42510;PMS7003;28141;51.120;17.114;2022-10-16T04:54:31;11;5;3
42510;PMS7003;28141;51.120;17.114;2022-10-16T04:57:34;10;4;3
42510;PMS7003;28141;51.120;17.114;2022-10-16T05:00:38;12;5;3
42510;PMS7003;28141;51.120;17.114;2022-10-16T05:03:42;11;4;3
42510;PMS7003;28141;51.120;17.114;2022-10-16T05:06:45;12;4;3
42510;PMS7003;28141;51.120;17.114;2022-10-16T05:09:50;11;5;3
42510;PMS7003;28141;51.120;17.114;2022-10-16T05:12:54;11;4;3
42510;PMS7003;28141;51.120;17.114;2022-10-16T05:15:58;11;5;3
42510;PMS7003;28141;51.120;17.114;2022-10-16T05:19:01;12;4;2
42510;PMS7003;28141;51.120;17.114;2022-10-16T05:22:04;12;4;3
42510;PMS7003;28141;51.120;17.114;2022-10-16T05:25:34;10;3;2
42510;PMS7003;28141;51.120;17.114;2022-10-16T05:28:38;11;4;3
42510;PMS7003;28141;51.120;17.114;2022-10-16T05:31:41;11;5;3
42510;PMS7003;28141;51.120;17.114;2022-10-16T05:34:45;11;4;3
42510;PMS7003;28141;51.120;17.114;2022-10-16T05:37:49;10;4;2
42510;PMS7003;28141;51.120;17.114;2022-10-16T05:40:52;11;4;3
42510;PMS7003;28141;51.120;17.114;2022-10-16T05:43:56;11;4;2
42510;PMS7003;28141;51.120;17.114;2022-10-16T05:47:00;11;4;3
42510;PMS7003;28141;51.120;17.114;2022-10-16T05:50:03;10;2;2
42510;PMS7003;28141;51.120;17.114;2022-10-16T05:53:07;10;4;2
42510;PMS7003;28141;51.120;17.114;2022-10-16T05:56:11;10;3;2
42510;PMS7003;28141;51.120;17.114;2022-10-16T05:59:41;11;5;2
42510;PMS7003;28141;51.120;17.114;2022-10-16T06:02:46;11;4;2
42510;PMS7003;28141;51.120;17.114;2022-10-16T06:05:49;12;6;3
42510;PMS7003;28141;51.120;17.114;2022-10-16T06:08:53;12;5;3
42510;PMS7003;28141;51.120;17.114;2022-10-16T06:11:58;11;4;3
42510;PMS7003;28141;51.120;17.114;2022-10-16T06:15:02;10;3;2
42510;PMS7003;28141;51.120;17.114;2022-10-16T06:18:06;12;5;4
42510;PMS7003;28141;51.120;17.114;2022-10-16T06:21:11;11;5;3
42510;PMS7003;28141;51.120;17.114;2022-10-16T06:24:17;11;4;3
42510;PMS7003;28141;51.120;17.114;2022-10-16T06:27:21;12;5;3
42510;PMS7003;28141;51.120;17.114;2022-10-16T06:30:24;11;4;2
42510;PMS7003;28141;51.120;17.114;2022-10-16T06:33:54;10;3;2
42510;PMS7003;28141;51.120;17.114;2022-10-16T06:36:59;10;4;3
42510;PMS7003;28141;51.120;17.114;2022-10-16T06:40:02;10;3;3
42510;PMS7003;28141;51.120;17.114;2022-10-16T06:43:07;11;4;3
42510;PMS7003;28141;51.120;17.114;2022-10-16T06:46:11;11;4;2
42510;PMS7003;28141;51.120;17.114;2022-10-16T06:49:17;9;3;2
42510;PMS7003;28141;51.120;17.114;2022-10-16T06:52:27;10;4;3
42510;PMS7003;28141;51.120;17.114;2022-10-16T06:55:31;11;4;2
42510;PMS7003;28141;51.120;17.114;2022-10-16T06:58:34;11;4;2
42510;PMS7003;28141;51.120;17.114;2022-10-16T07:02:04;12;3;3
42510;PMS7003;28141;51.120;17.114;2022-10-16T07:05:10;12;4;3
42510;PMS7003;28141;51.120;17.114;2022-10-16T07:08:14;11;4;3
42510;PMS7003;28141;51.120;17.114;2022-10-16T07:11:18;10;4;2
42510;PMS7003;28141;51.120;17.114;2022-10-16T07:14:24;10;4;3
42510;PMS7003;28141;51.120;17.114;2022-10-16T07:17:27;11;4;2
42510;PMS7003;28141;51.120;17.114;2022-10-16T07:20:31;10;3;3
42510;PMS7003;28141;51.120;17.114;2022-10-16T07:23:34;10;4;3
42510;PMS7003;28141;51.120;17.114;2022-10-16T07:26:38;11;4;2
42510;PMS7003;28141;51.120;17.114;2022-10-16T07:29:42;10;4;2
42510;PMS7003;28141;51.120;17.114;2022-10-16T07:32:46;9;3;1
42510;PMS7003;28141;51.120;17.114;2022-10-16T07:36:16;11;5;2
42510;PMS7003;28141;51.120;17.114;2022-10-16T07:39:21;10;3;2
42510;PMS7003;28141;51.120;17.114;2022-10-16T07:42:24;10;3;2
42510;PMS7003;28141;51.120;17.114;2022-10-16T07:45:28;9;3;2
42510;PMS7003;28141;51.120;17.114;2022-10-16T07:48:32;10;3;2
42510;PMS7003;28141;51.120;17.114;2022-10-16T07:51:36;10;3;2
42510;PMS7003;28141;51.120;17.114;2022-10-16T07:54:41;10;3;1
42510;PMS7003;28141;51.120;17.114;2022-10-16T07:57:45;10;3;2
42510;PMS7003;28141;51.120;17.114;2022-10-16T08:00:48;11;4;2
42510;PMS7003;28141;51.120;17.114;2022-10-16T08:03:52;10;3;2
42510;PMS7003;28141;51.120;17.114;2022-10-16T08:07:24;10;4;2
42510;PMS7003;28141;51.120;17.114;2022-10-16T08:10:27;10;2;2
42510;PMS7003;28141;51.120;17.114;2022-10-16T08:13:32;10;3;2
42510;PMS7003;28141;51.120;17.114;2022-10-16T08:16:36;10;3;2
42510;PMS7003;28141;51.120;17.114;2022-10-16T08:19:40;9;3;2
42510;PMS7003;28141;51.120;17.114;2022-10-16T08:22:47;11;5;2
42510;PMS7003;28141;51.120;17.114;2022-10-16T08:25:51;10;3;2
42510;PMS7003;28141;51.120;17.114;2022-10-16T08:28:56;10;3;2
42510;PMS7003;28141;51.120;17.114;2022-10-16T08:31:59;11;4;2
42510;PMS7003;28141;51.120;17.114;2022-10-16T08:35:03;10;3;2
42510;PMS7003;28141;51.120;17.114;2022-10-16T08:38:33;9;3;1
42510;PMS7003;28141;51.120;17.114;2022-10-16T08:48:15;9;2;2
42510;PMS7003;28141;51.120;17.114;2022-10-16T08:51:54;9;3;2
42510;PMS7003;28141;51.120;17.114;2022-10-16T08:55:00;9;3;2
42510;PMS7003;28141;51.120;17.114;2022-10-16T08:58:23;9;2;1
42510;PMS7003;28141;51.120;17.114;2022-10-16T09:01:22;9;3;1
42510;PMS7003;28141;51.120;17.114;2022-10-16T09:21:18;9;2;2
42510;PMS7003;28141;51.120;17.114;2022-10-16T09:24:56;9;2;1
42510;PMS7003;28141;51.120;17.114;2022-10-16T09:28:08;9;2;2
42510;PMS7003;28141;51.120;17.114;2022-10-16T09:31:16;10;3;1
42510;PMS7003;28141;51.120;17.114;2022-10-16T09:37:39;9;2;1
42510;PMS7003;28141;51.120;17.114;2022-10-16T09:41:17;9;2;2
42510;PMS7003;28141;51.120;17.114;2022-10-16T09:44:27;9;3;2
42510;PMS7003;28141;51.120;17.114;2022-10-16T09:47:35;9;3;2
42510;PMS7003;28141;51.120;17.114;2022-10-16T09:50:54;10;4;2
42510;PMS7003;28141;51.120;17.114;2022-10-16T09:54:00;8;2;2
42510;PMS7003;28141;51.120;17.114;2022-10-16T09:57:35;9;3;2
42510;PMS7003;28141;51.120;17.114;2022-10-16T10:00:39;10;2;1
42510;PMS7003;28141;51.120;17.114;2022-10-16T10:03:49;9;2;1
42510;PMS7003;28141;51.120;17.114;2022-10-16T10:07:00;10;3;2
42510;PMS7003;28141;51.120;17.114;2022-10-16T10:10:04;9;2;1
42510;PMS7003;28141;51.120;17.114;2022-10-16T10:16:52;10;3;2
42510;PMS7003;28141;51.120;17.114;2022-10-16T10:26:28;10;3;2
42510;PMS7003;28141;51.120;17.114;2022-10-16T10:29:46;8;1;1
42510;PMS7003;28141;51.120;17.114;2022-10-16T10:36:38;9;3;2
42510;PMS7003;28141;51.120;17.114;2022-10-16T10:39:48;9;2;1
42510;PMS7003;28141;51.120;17.114;2022-10-16T10:43:09;9;3;2
42510;PMS7003;28141;51.120;17.114;2022-10-16T10:56:40;10;3;2
42510;PMS7003;28141;51.120;17.114;2022-10-16T11:06:43;9;2;2
42510;PMS7003;28141;51.120;17.114;2022-10-16T11:09:53;9;3;2
42510;PMS7003;28141;51.120;17.114;2022-10-16T11:16:47;10;3;2
42510;PMS7003;28141;51.120;17.114;2022-10-16T11:19:58;9;3;2
42510;PMS7003;28141;51.120;17.114;2022-10-16T11:26:26;9;3;2
42510;PMS7003;28141;51.120;17.114;2022-10-16T11:29:33;10;2;2
42510;PMS7003;28141;51.120;17.114;2022-10-16T11:33:19;10;3;1
42510;PMS7003;28141;51.120;17.114;2022-10-16T11:36:25;8;2;1
42510;PMS7003;28141;51.120;17.114;2022-10-16T11:39:37;9;2;1
42510;PMS7003;28141;51.120;17.114;2022-10-16T11:42:46;9;3;2
42510;PMS7003;28141;51.120;17.114;2022-10-16T11:45:57;8;2;1
42510;PMS7003;28141;51.120;17.114;2022-10-16T11:49:33;9;3;1
42510;PMS7003;28141;51.120;17.114;2022-10-16T11:52:40;10;3;2
42510;PMS7003;28141;51.120;17.114;2022-10-16T11:55:51;10;3;2
42510;PMS7003;28141;51.120;17.114;2022-10-16T11:59:02;10;2;2
42510;PMS7003;28141;51.120;17.114;2022-10-16T12:02:20;9;2;2
42510;PMS7003;28141;51.120;17.114;2022-10-16T12:09:20;8;2;1
42510;PMS7003;28141;51.120;17.114;2022-10-16T12:15:42;10;2;1
42510;PMS7003;28141;51.120;17.114;2022-10-16T12:18:46;9;3;1
42510;PMS7003;28141;51.120;17.114;2022-10-16T12:22:17;9;2;1
42510;PMS7003;28141;51.120;17.114;2022-10-16T12:28:33;12;3;2
42510;PMS7003;28141;51.120;17.114;2022-10-16T12:31:43;9;2;1
42510;PMS7003;28141;51.120;17.114;2022-10-16T12:34:49;8;2;1
42510;PMS7003;28141;51.120;17.114;2022-10-16T12:37:53;9;3;2
42510;PMS7003;28141;51.120;17.114;2022-10-16T12:41:06;9;2;2
42510;PMS7003;28141;51.120;17.114;2022-10-16T12:44:38;9;2;1
42510;PMS7003;28141;51.120;17.114;2022-10-16T12:50:52;9;2;1
42510;PMS7003;28141;51.120;17.114;2022-10-16T12:53:59;10;3;2
42510;PMS7003;28141;51.120;17.114;2022-10-16T13:04:10;10;4;3
42510;PMS7003;28141;51.120;17.114;2022-10-16T13:10:47;10;3;2
42510;PMS7003;28141;51.120;17.114;2022-10-16T13:31:03;10;3;2
42510;PMS7003;28141;51.120;17.114;2022-10-16T13:34:11;9;2;1
42510;PMS7003;28141;51.120;17.114;2022-10-16T13:37:19;9;2;2
42510;PMS7003;28141;51.120;17.114;2022-10-16T13:40:25;9;2;2
42510;PMS7003;28141;51.120;17.114;2022-10-16T13:46:40;8;1;1
42510;PMS7003;28141;51.120;17.114;2022-10-16T13:49:43;8;2;1
42510;PMS7003;28141;51.120;17.114;2022-10-16T13:52:47;8;1;1
42510;PMS7003;28141;51.120;17.114;2022-10-16T13:56:19;9;2;2
42510;PMS7003;28141;51.120;17.114;2022-10-16T13:59:34;8;2;1
42510;PMS7003;28141;51.120;17.114;2022-10-16T14:02:37;9;2;1
42510;PMS7003;28141;51.120;17.114;2022-10-16T14:08:59;9;2;2
42510;PMS7003;28141;51.120;17.114;2022-10-16T14:12:39;8;2;1
42510;PMS7003;28141;51.120;17.114;2022-10-16T14:15:45;11;3;1
42510;PMS7003;28141;51.120;17.114;2022-10-16T14:22:04;9;2;1
42510;PMS7003;28141;51.120;17.114;2022-10-16T14:25:24;9;3;2
42510;PMS7003;28141;51.120;17.114;2022-10-16T14:29:10;9;2;1
42510;PMS7003;28141;51.120;17.114;2022-10-16T14:32:21;9;2;1
42510;PMS7003;28141;51.120;17.114;2022-10-16T14:38:37;8;1;1
42510;PMS7003;28141;51.120;17.114;2022-10-16T14:41:46;9;1;1
42510;PMS7003;28141;51.120;17.114;2022-10-16T14:45:21;8;2;1
42510;PMS7003;28141;51.120;17.114;2022-10-16T14:48:29;9;1;1
42510;PMS7003;28141;51.120;17.114;2022-10-16T14:51:33;8;2;1
42510;PMS7003;28141;51.120;17.114;2022-10-16T14:54:36;9;1;1
42510;PMS7003;28141;51.120;17.114;2022-10-16T14:57:40;8;1;1
42510;PMS7003;28141;51.120;17.114;2022-10-16T15:00:45;8;1;1
42510;PMS7003;28141;51.120;17.114;2022-10-16T15:03:49;8;2;1
42510;PMS7003;28141;51.120;17.114;2022-10-16T15:06:56;9;2;1
42510;PMS7003;28141;51.120;17.114;2022-10-16T15:10:00;8;2;1
42510;PMS7003;28141;51.120;17.114;2022-10-16T15:13:03;9;2;1
42510;PMS7003;28141;51.120;17.114;2022-10-16T15:16:36;8;1;1
42510;PMS7003;28141;51.120;17.114;2022-10-16T15:19:39;8;2;1
42510;PMS7003;28141;51.120;17.114;2022-10-16T15:22:43;9;2;1
42510;PMS7003;28141;51.120;17.114;2022-10-16T15:25:47;9;2;2
42510;PMS7003;28141;51.120;17.114;2022-10-16T15:28:53;9;1;1
42510;PMS7003;28141;51.120;17.114;2022-10-16T15:31:57;8;2;1
42510;PMS7003;28141;51.120;17.114;2022-10-16T15:35:00;10;3;2
42510;PMS7003;28141;51.120;17.114;2022-10-16T15:38:04;9;3;1
42510;PMS7003;28141;51.120;17.114;2022-10-16T15:41:07;9;3;2
42510;PMS7003;28141;51.120;17.114;2022-10-16T15:44:11;9;2;2
42510;PMS7003;28141;51.120;17.114;2022-10-16T15:47:15;8;2;1
42510;PMS7003;28141;51.120;17.114;2022-10-16T15:50:47;9;2;1
42510;PMS7003;28141;51.120;17.114;2022-10-16T15:53:51;9;2;2
42510;PMS7003;28141;51.120;17.114;2022-10-16T15:56:56;9;2;2
42510;PMS7003;28141;51.120;17.114;2022-10-16T15:59:59;9;2;1
42510;PMS7003;28141;51.120;17.114;2022-10-16T16:03:03;9;2;2
42510;PMS7003;28141;51.120;17.114;2022-10-16T16:06:08;10;4;2
42510;PMS7003;28141;51.120;17.114;2022-10-16T16:09:13;11;4;2
42510;PMS7003;28141;51.120;17.114;2022-10-16T16:12:17;11;4;2
42510;PMS7003;28141;51.120;17.114;2022-10-16T16:15:21;11;4;3
42510;PMS7003;28141;51.120;17.114;2022-10-16T16:18:25;11;4;2
42510;PMS7003;28141;51.120;17.114;2022-10-16T16:22:00;9;2;1
42510;PMS7003;28141;51.120;17.114;2022-10-16T16:25:04;8;2;1
42510;PMS7003;28141;51.120;17.114;2022-10-16T16:28:08;8;1;1
42510;PMS7003;28141;51.120;17.114;2022-10-16T16:31:16;8;1;1
42510;PMS7003;28141;51.120;17.114;2022-10-16T16:34:20;9;2;2
42510;PMS7003;28141;51.120;17.114;2022-10-16T16:37:23;9;2;1
42510;PMS7003;28141;51.120;17.114;2022-10-16T16:40:27;9;1;1
42510;PMS7003;28141;51.120;17.114;2022-10-16T16:43:30;9;2;1
42510;PMS7003;28141;51.120;17.114;2022-10-16T16:46:34;10;2;1
42510;PMS7003;28141;51.120;17.114;2022-10-16T16:49:38;9;3;1
42510;PMS7003;28141;51.120;17.114;2022-10-16T16:52:43;9;2;1
42510;PMS7003;28141;51.120;17.114;2022-10-16T16:56:13;9;2;1
42510;PMS7003;28141;51.120;17.114;2022-10-16T16:59:20;9;2;1
42510;PMS7003;28141;51.120;17.114;2022-10-16T17:02:24;11;2;1
42510;PMS7003;28141;51.120;17.114;2022-10-16T17:05:28;9;2;1
42510;PMS7003;28141;51.120;17.114;2022-10-16T17:08:32;8;2;1
42510;PMS7003;28141;51.120;17.114;2022-10-16T17:11:38;8;1;1
42510;PMS7003;28141;51.120;17.114;2022-10-16T17:14:45;10;3;2
42510;PMS7003;28141;51.120;17.114;2022-10-16T17:17:49;9;2;1
42510;PMS7003;28141;51.120;17.114;2022-10-16T17:20:52;9;3;1
42510;PMS7003;28141;51.120;17.114;2022-10-16T17:23:56;8;2;1
42510;PMS7003;28141;51.120;17.114;2022-10-16T17:27:26;9;2;1
42510;PMS7003;28141;51.120;17.114;2022-10-16T17:30:29;9;2;2
42510;PMS7003;28141;51.120;17.114;2022-10-16T17:33:37;11;3;2
42510;PMS7003;28141;51.120;17.114;2022-10-16T17:36:41;9;3;1
42510;PMS7003;28141;51.120;17.114;2022-10-16T17:39:49;10;3;1
42510;PMS7003;28141;51.120;17.114;2022-10-16T17:42:54;10;3;2
42510;PMS7003;28141;51.120;17.114;2022-10-16T17:46:00;9;2;1
42510;PMS7003;28141;51.120;17.114;2022-10-16T17:49:04;9;3;2
42510;PMS7003;28141;51.120;17.114;2022-10-16T17:52:08;8;2;1
42510;PMS7003;28141;51.120;17.114;2022-10-16T17:55:39;10;3;2
42510;PMS7003;28141;51.120;17.114;2022-10-16T17:58:47;9;3;2
42510;PMS7003;28141;51.120;17.114;2022-10-16T18:01:54;10;3;1
42510;PMS7003;28141;51.120;17.114;2022-10-16T18:04:58;9;3;2
42510;PMS7003;28141;51.120;17.114;2022-10-16T18:08:02;9;3;2
42510;PMS7003;28141;51.120;17.114;2022-10-16T18:11:06;11;4;2
42510;PMS7003;28141;51.120;17.114;2022-10-16T18:14:13;9;3;2
42510;PMS7003;28141;51.120;17.114;2022-10-16T18:17:18;10;3;2
42510;PMS7003;28141;51.120;17.114;2022-10-16T18:24:01;9;2;1
42510;PMS7003;28141;51.120;17.114;2022-10-16T18:27:05;10;3;2
42510;PMS7003;28141;51.120;17.114;2022-10-16T18:30:09;9;3;2
42510;PMS7003;28141;51.120;17.114;2022-10-16T18:33:13;10;3;2
42510;PMS7003;28141;51.120;17.114;2022-10-16T18:36:17;10;3;2
42510;PMS7003;28141;51.120;17.114;2022-10-16T18:39:23;10;3;2
42510;PMS7003;28141;51.120;17.114;2022-10-16T18:42:26;9;3;1
42510;PMS7003;28141;51.120;17.114;2022-10-16T18:45:30;10;2;2
42510;PMS7003;28141;51.120;17.114;2022-10-16T18:48:33;10;3;2
42510;PMS7003;28141;51.120;17.114;2022-10-16T18:52:03;9;2;1
42510;PMS7003;28141;51.120;17.114;2022-10-16T18:55:08;11;4;2
42510;PMS7003;28141;51.120;17.114;2022-10-16T18:58:11;10;3;2
42510;PMS7003;28141;51.120;17.114;2022-10-16T19:01:16;11;4;3
42510;PMS7003;28141;51.120;17.114;2022-10-16T19:04:25;11;4;3
42510;PMS7003;28141;51.120;17.114;2022-10-16T19:07:29;11;4;2
42510;PMS7003;28141;51.120;17.114;2022-10-16T19:10:35;10;3;2
42510;PMS7003;28141;51.120;17.114;2022-10-16T19:13:40;10;3;2
42510;PMS7003;28141;51.120;17.114;2022-10-16T19:16:44;10;4;2
42510;PMS7003;28141;51.120;17.114;2022-10-16T19:20:14;10;3;2
42510;PMS7003;28141;51.120;17.114;2022-10-16T19:23:17;9;3;2
42510;PMS7003;28141;51.120;17.114;2022-10-16T19:26:21;12;3;2
42510;PMS7003;28141;51.120;17.114;2022-10-16T19:29:25;10;3;2
42510;PMS7003;28141;51.120;17.114;2022-10-16T19:32:31;11;4;2
42510;PMS7003;28141;51.120;17.114;2022-10-16T19:35:35;11;4;3
42510;PMS7003;28141;51.120;17.114;2022-10-16T19:38:39;10;3;2
42510;PMS7003;28141;51.120;17.114;2022-10-16T19:41:43;10;4;3
42510;PMS7003;28141;51.120;17.114;2022-10-16T19:44:49;11;4;3
42510;PMS7003;28141;51.120;17.114;2022-10-16T19:47:53;10;3;2
42510;PMS7003;28141;51.120;17.114;2022-10-16T19:50:57;12;5;2
42510;PMS7003;28141;51.120;17.114;2022-10-16T19:54:27;12;4;3
42510;PMS7003;28141;51.120;17.114;2022-10-16T20:00:40;11;4;3
42510;PMS7003;28141;51.120;17.114;2022-10-16T20:03:45;12;5;3
42510;PMS7003;28141;51.120;17.114;2022-10-16T20:06:50;11;4;3
42510;PMS7003;28141;51.120;17.114;2022-10-16T20:09:54;11;5;3
42510;PMS7003;28141;51.120;17.114;2022-10-16T20:12:57;10;4;3
42510;PMS7003;28141;51.120;17.114;2022-10-16T20:16:03;14;6;4
42510;PMS7003;28141;51.120;17.114;2022-10-16T20:19:08;12;4;3
42510;PMS7003;28141;51.120;17.114;2022-10-16T20:22:38;11;4;3
42510;PMS7003;28141;51.120;17.114;2022-10-16T20:25:42;12;4;3
42510;PMS7003;28141;51.120;17.114;2022-10-16T20:28:46;11;4;3
42510;PMS7003;28141;51.120;17.114;2022-10-16T20:31:50;12;4;3
42510;PMS7003;28141;51.120;17.114;2022-10-16T20:34:53;11;4;3
42510;PMS7003;28141;51.120;17.114;2022-10-16T20:37:56;12;5;4
42510;PMS7003;28141;51.120;17.114;2022-10-16T20:41:01;12;5;3
42510;PMS7003;28141;51.120;17.114;2022-10-16T20:44:06;12;5;3
42510;PMS7003;28141;51.120;17.114;2022-10-16T20:47:10;12;5;3
42510;PMS7003;28141;51.120;17.114;2022-10-16T20:50:13;12;5;4
42510;PMS7003;28141;51.120;17.114;2022-10-16T20:53:47;14;6;4
42510;PMS7003;28141;51.120;17.114;2022-10-16T20:56:54;13;6;4
42510;PMS7003;28141;51.120;17.114;2022-10-16T20:59:58;11;4;3
42510;PMS7003;28141;51.120;17.114;2022-10-16T21:03:01;13;6;4
42510;PMS7003;28141;51.120;17.114;2022-10-16T21:06:05;11;5;4
42510;PMS7003;28141;51.120;17.114;2022-10-16T21:09:11;13;6;4
42510;PMS7003;28141;51.120;17.114;2022-10-16T21:12:14;15;8;5
42510;PMS7003;28141;51.120;17.114;2022-10-16T21:15:18;13;6;3
42510;PMS7003;28141;51.120;17.114;2022-10-16T21:18:21;12;6;4
42510;PMS7003;28141;51.120;17.114;2022-10-16T21:21:26;14;6;4
42510;PMS7003;28141;51.120;17.114;2022-10-16T21:24:58;12;6;4
42510;PMS7003;28141;51.120;17.114;2022-10-16T21:28:01;14;7;4
42510;PMS7003;28141;51.120;17.114;2022-10-16T21:34:20;12;5;3
42510;PMS7003;28141;51.120;17.114;2022-10-16T21:37:24;15;7;4
42510;PMS7003;28141;51.120;17.114;2022-10-16T21:40:30;13;6;4
42510;PMS7003;28141;51.120;17.114;2022-10-16T21:43:33;13;6;4
42510;PMS7003;28141;51.120;17.114;2022-10-16T21:46:38;14;7;5
42510;PMS7003;28141;51.120;17.114;2022-10-16T21:50:10;14;7;5
42510;PMS7003;28141;51.120;17.114;2022-10-16T21:53:14;15;7;5
42510;PMS7003;28141;51.120;17.114;2022-10-16T21:56:17;15;8;5
42510;PMS7003;28141;51.120;17.114;2022-10-16T21:59:21;15;8;6
42510;PMS7003;28141;51.120;17.114;2022-10-16T22:02:24;15;7;5
42510;PMS7003;28141;51.120;17.114;2022-10-16T22:05:28;13;6;4
42510;PMS7003;28141;51.120;17.114;2022-10-16T22:08:32;14;7;5
42510;PMS7003;28141;51.120;17.114;2022-10-16T22:11:36;13;6;5
42510;PMS7003;28141;51.120;17.114;2022-10-16T22:14:40;13;6;4
42510;PMS7003;28141;51.120;17.114;2022-10-16T22:17:44;14;6;4
42510;PMS7003;28141;51.120;17.114;2022-10-16T22:20:47;13;7;4
42510;PMS7003;28141;51.120;17.114;2022-10-16T22:24:17;14;7;5
42510;PMS7003;28141;51.120;17.114;2022-10-16T22:27:21;15;8;5
42510;PMS7003;28141;51.120;17.114;2022-10-16T22:30:25;13;6;5
42510;PMS7003;28141;51.120;17.114;2022-10-16T22:33:28;15;7;5
42510;PMS7003;28141;51.120;17.114;2022-10-16T22:36:32;13;6;5
42510;PMS7003;28141;51.120;17.114;2022-10-16T22:39:36;18;8;6
42510;PMS7003;28141;51.120;17.114;2022-10-16T22:42:40;14;7;5
42510;PMS7003;28141;51.120;17.114;2022-10-16T22:45:43;14;7;5
42510;PMS7003;28141;51.120;17.114;2022-10-16T22:48:47;15;8;5
42510;PMS7003;28141;51.120;17.114;2022-10-16T22:51:51;15;7;5
42510;PMS7003;28141;51.120;17.114;2022-10-16T22:54:54;16;9;6
42510;PMS7003;28141;51.120;17.114;2022-10-16T22:58:24;17;9;7
42510;PMS7003;28141;51.120;17.114;2022-10-16T23:01:29;16;8;6
42510;PMS7003;28141;51.120;17.114;2022-10-16T23:04:35;15;9;5
42510;PMS7003;28141;51.120;17.114;2022-10-16T23:07:38;16;8;5
42510;PMS7003;28141;51.120;17.114;2022-10-16T23:10:43;14;7;5